sensor_id;sensor_type;location;lat;lon;timestamp;temperature;humidity
36990;DHT22;22898;52.102;5.776;2023-11-19T00:00:36;16.10;99.90
36990;DHT22;22898;52.102;5.776;2023-11-19T00:03:01;16.00;99.90
36990;DHT22;22898;52.102;5.776;2023-11-19T00:05:27;16.00;99.90
36990;DHT22;22898;52.102;5.776;2023-11-19T00:07:53;16.00;99.90
36990;DHT22;22898;52.102;5.776;2023-11-19T00:10:19;16.20;99.90
36990;DHT22;22898;52.102;5.776;2023-11-19T00:12:47;16.20;99.90
36990;DHT22;22898;52.102;5.776;2023-11-19T00:15:13;16.20;99.90
36990;DHT22;22898;52.102;5.776;2023-11-19T00:17:40;16.10;99.90
36990;DHT22;22898;52.102;5.776;2023-11-19T00:20:08;15.60;99.90
36990;DHT22;22898;52.102;5.776;2023-11-19T00:22:33;15.90;99.90
36990;DHT22;22898;52.102;5.776;2023-11-19T00:24:59;15.90;99.90
36990;DHT22;22898;52.102;5.776;2023-11-19T00:27:25;16.10;99.90
36990;DHT22;22898;52.102;5.776;2023-11-19T00:29:51;16.00;99.90
36990;DHT22;22898;52.102;5.776;2023-11-19T00:32:17;16.10;99.90
36990;DHT22;22898;52.102;5.776;2023-11-19T00:34:45;16.40;99.90
36990;DHT22;22898;52.102;5.776;2023-11-19T00:37:13;16.60;99.90
36990;DHT22;22898;52.102;5.776;2023-11-19T00:39:39;16.20;99.90
36990;DHT22;22898;52.102;5.776;2023-11-19T00:42:05;16.10;99.90
36990;DHT22;22898;52.102;5.776;2023-11-19T00:44:31;15.80;99.90
36990;DHT22;22898;52.102;5.776;2023-11-19T00:46:56;16.00;99.90
36990;DHT22;22898;52.102;5.776;2023-11-19T00:49:22;16.10;99.90
36990;DHT22;22898;52.102;5.776;2023-11-19T00:51:47;16.70;99.90
36990;DHT22;22898;52.102;5.776;2023-11-19T00:54:14;16.80;99.90
36990;DHT22;22898;52.102;5.776;2023-11-19T00:56:39;16.70;99.90
36990;DHT22;22898;52.102;5.776;2023-11-19T00:59:05;17.10;99.90
36990;DHT22;22898;52.102;5.776;2023-11-19T01:01:31;16.80;99.90
36990;DHT22;22898;52.102;5.776;2023-11-19T01:03:56;17.10;99.90
36990;DHT22;22898;52.102;5.776;2023-11-19T01:06:31;17.40;99.90
36990;DHT22;22898;52.102;5.776;2023-11-19T01:08:57;17.20;99.90
36990;DHT22;22898;52.102;5.776;2023-11-19T01:11:24;17.10;99.90
36990;DHT22;22898;52.102;5.776;2023-11-19T01:13:50;17.00;99.90
36990;DHT22;22898;52.102;5.776;2023-11-19T01:16:16;16.70;99.90
36990;DHT22;22898;52.102;5.776;2023-11-19T01:18:42;16.00;99.90
36990;DHT22;22898;52.102;5.776;2023-11-19T01:21:07;15.90;99.90
36990;DHT22;22898;52.102;5.776;2023-11-19T01:23:34;16.60;99.90
36990;DHT22;22898;52.102;5.776;2023-11-19T01:25:59;16.70;99.90
36990;DHT22;22898;52.102;5.776;2023-11-19T01:28:25;16.60;99.90
36990;DHT22;22898;52.102;5.776;2023-11-19T01:30:51;16.60;99.90
36990;DHT22;22898;52.102;5.776;2023-11-19T01:33:16;16.80;99.90
36990;DHT22;22898;52.102;5.776;2023-11-19T01:35:42;16.50;99.90
36990;DHT22;22898;52.102;5.776;2023-11-19T01:38:08;15.90;99.90
36990;DHT22;22898;52.102;5.776;2023-11-19T01:40:37;15.80;99.90
36990;DHT22;22898;52.102;5.776;2023-11-19T01:43:03;16.30;99.90
36990;DHT22;22898;52.102;5.776;2023-11-19T01:45:30;16.50;99.90
36990;DHT22;22898;52.102;5.776;2023-11-19T01:48:02;16.30;99.90
36990;DHT22;22898;52.102;5.776;2023-11-19T01:50:32;16.40;99.90
36990;DHT22;22898;52.102;5.776;2023-11-19T01:52:58;16.60;99.90
36990;DHT22;22898;52.102;5.776;2023-11-19T01:55:25;16.30;99.90
36990;DHT22;22898;52.102;5.776;2023-11-19T01:57:54;16.70;99.90
36990;DHT22;22898;52.102;5.776;2023-11-19T02:00:22;16.90;99.90
36990;DHT22;22898;52.102;5.776;2023-11-19T02:02:48;16.50;99.90
36990;DHT22;22898;52.102;5.776;2023-11-19T02:05:14;16.10;99.90
36990;DHT22;22898;52.102;5.776;2023-11-19T02:07:40;16.20;99.90
36990;DHT22;22898;52.102;5.776;2023-11-19T02:10:06;16.50;99.90
36990;DHT22;22898;52.102;5.776;2023-11-19T02:12:33;16.80;99.90
36990;DHT22;22898;52.102;5.776;2023-11-19T02:15:03;17.00;99.90
36990;DHT22;22898;52.102;5.776;2023-11-19T02:17:32;16.70;99.90
36990;DHT22;22898;52.102;5.776;2023-11-19T02:19:58;16.60;99.90
36990;DHT22;22898;52.102;5.776;2023-11-19T02:22:24;16.80;99.90
36990;DHT22;22898;52.102;5.776;2023-11-19T02:24:51;16.40;99.90
36990;DHT22;22898;52.102;5.776;2023-11-19T02:30:08;16.20;99.90
36990;DHT22;22898;52.102;5.776;2023-11-19T02:32:34;15.80;99.90
36990;DHT22;22898;52.102;5.776;2023-11-19T02:35:01;15.80;99.90
36990;DHT22;22898;52.102;5.776;2023-11-19T02:37:27;16.10;99.90
36990;DHT22;22898;52.102;5.776;2023-11-19T02:39:54;15.90;99.90
36990;DHT22;22898;52.102;5.776;2023-11-19T02:42:19;15.70;99.90
36990;DHT22;22898;52.102;5.776;2023-11-19T02:44:45;15.20;99.90
36990;DHT22;22898;52.102;5.776;2023-11-19T02:47:11;15.40;99.90
36990;DHT22;22898;52.102;5.776;2023-11-19T02:49:37;15.60;99.90
36990;DHT22;22898;52.102;5.776;2023-11-19T02:52:03;15.80;99.90
36990;DHT22;22898;52.102;5.776;2023-11-19T02:54:31;15.90;99.90
36990;DHT22;22898;52.102;5.776;2023-11-19T02:57:00;15.80;99.90
36990;DHT22;22898;52.102;5.776;2023-11-19T02:59:27;16.10;99.90
36990;DHT22;22898;52.102;5.776;2023-11-19T03:01:54;15.80;99.90
36990;DHT22;22898;52.102;5.776;2023-11-19T03:04:20;15.60;99.90
36990;DHT22;22898;52.102;5.776;2023-11-19T03:06:46;15.60;99.90
36990;DHT22;22898;52.102;5.776;2023-11-19T03:09:12;15.40;99.90
36990;DHT22;22898;52.102;5.776;2023-11-19T03:11:38;14.90;99.90
36990;DHT22;22898;52.102;5.776;2023-11-19T03:14:04;15.20;99.90
36990;DHT22;22898;52.102;5.776;2023-11-19T03:16:30;15.50;99.90
36990;DHT22;22898;52.102;5.776;2023-11-19T03:18:55;15.20;99.90
36990;DHT22;22898;52.102;5.776;2023-11-19T03:21:31;14.70;99.90
36990;DHT22;22898;52.102;5.776;2023-11-19T03:23:57;14.70;99.90
36990;DHT22;22898;52.102;5.776;2023-11-19T03:26:26;14.70;99.90
36990;DHT22;22898;52.102;5.776;2023-11-19T03:28:52;14.70;99.90
36990;DHT22;22898;52.102;5.776;2023-11-19T03:31:18;14.70;99.90
36990;DHT22;22898;52.102;5.776;2023-11-19T03:33:44;14.60;99.90
36990;DHT22;22898;52.102;5.776;2023-11-19T03:36:10;14.80;99.90
36990;DHT22;22898;52.102;5.776;2023-11-19T03:38:36;15.10;99.90
36990;DHT22;22898;52.102;5.776;2023-11-19T03:41:12;15.00;99.90
36990;DHT22;22898;52.102;5.776;2023-11-19T03:43:39;14.70;99.90
36990;DHT22;22898;52.102;5.776;2023-11-19T03:46:15;14.70;99.90
36990;DHT22;22898;52.102;5.776;2023-11-19T03:48:41;14.70;99.90
36990;DHT22;22898;52.102;5.776;2023-11-19T03:51:06;14.50;99.90
36990;DHT22;22898;52.102;5.776;2023-11-19T03:53:32;14.90;99.90
36990;DHT22;22898;52.102;5.776;2023-11-19T03:55:57;14.90;99.90
36990;DHT22;22898;52.102;5.776;2023-11-19T03:58:24;14.70;99.90
36990;DHT22;22898;52.102;5.776;2023-11-19T04:00:49;14.80;99.90
36990;DHT22;22898;52.102;5.776;2023-11-19T04:03:15;15.10;99.90
36990;DHT22;22898;52.102;5.776;2023-11-19T04:05:40;15.10;99.90
36990;DHT22;22898;52.102;5.776;2023-11-19T04:08:06;15.20;99.90
36990;DHT22;22898;52.102;5.776;2023-11-19T04:10:32;14.80;99.90
36990;DHT22;22898;52.102;5.776;2023-11-19T04:12:57;14.60;99.90
36990;DHT22;22898;52.102;5.776;2023-11-19T04:15:23;15.00;99.90
36990;DHT22;22898;52.102;5.776;2023-11-19T04:17:49;15.00;99.90
36990;DHT22;22898;52.102;5.776;2023-11-19T04:20:15;15.00;99.90
36990;DHT22;22898;52.102;5.776;2023-11-19T04:22:41;14.90;99.90
36990;DHT22;22898;52.102;5.776;2023-11-19T04:25:06;14.90;99.90
36990;DHT22;22898;52.102;5.776;2023-11-19T04:27:32;14.70;99.90
36990;DHT22;22898;52.102;5.776;2023-11-19T04:29:58;14.50;99.90
36990;DHT22;22898;52.102;5.776;2023-11-19T04:32:23;14.60;99.90
36990;DHT22;22898;52.102;5.776;2023-11-19T04:34:50;14.50;99.90
36990;DHT22;22898;52.102;5.776;2023-11-19T04:37:16;14.30;99.90
36990;DHT22;22898;52.102;5.776;2023-11-19T04:39:44;14.40;99.90
36990;DHT22;22898;52.102;5.776;2023-11-19T04:42:10;14.30;99.90
36990;DHT22;22898;52.102;5.776;2023-11-19T04:44:35;14.00;99.90
36990;DHT22;22898;52.102;5.776;2023-11-19T04:47:01;13.90;99.90
36990;DHT22;22898;52.102;5.776;2023-11-19T04:49:27;14.20;99.90
36990;DHT22;22898;52.102;5.776;2023-11-19T04:51:52;14.60;99.90
36990;DHT22;22898;52.102;5.776;2023-11-19T04:54:19;14.50;99.90
36990;DHT22;22898;52.102;5.776;2023-11-19T04:56:47;14.40;99.90
36990;DHT22;22898;52.102;5.776;2023-11-19T04:59:14;14.40;99.90
36990;DHT22;22898;52.102;5.776;2023-11-19T05:01:39;14.40;99.90
36990;DHT22;22898;52.102;5.776;2023-11-19T05:04:07;14.30;99.90
36990;DHT22;22898;52.102;5.776;2023-11-19T05:06:32;14.10;99.90
36990;DHT22;22898;52.102;5.776;2023-11-19T05:08:59;14.10;99.90
36990;DHT22;22898;52.102;5.776;2023-11-19T05:11:33;13.70;99.90
36990;DHT22;22898;52.102;5.776;2023-11-19T05:14:00;13.20;99.90
36990;DHT22;22898;52.102;5.776;2023-11-19T05:16:25;13.60;99.90
36990;DHT22;22898;52.102;5.776;2023-11-19T05:18:51;14.30;99.90
36990;DHT22;22898;52.102;5.776;2023-11-19T05:21:17;14.30;99.90
36990;DHT22;22898;52.102;5.776;2023-11-19T05:23:43;14.40;99.90
36990;DHT22;22898;52.102;5.776;2023-11-19T05:26:08;14.10;99.90
36990;DHT22;22898;52.102;5.776;2023-11-19T05:28:37;14.20;99.90
36990;DHT22;22898;52.102;5.776;2023-11-19T05:31:03;13.90;99.90
36990;DHT22;22898;52.102;5.776;2023-11-19T05:33:28;14.10;99.90
36990;DHT22;22898;52.102;5.776;2023-11-19T05:35:54;13.80;99.90
36990;DHT22;22898;52.102;5.776;2023-11-19T05:38:20;13.90;99.90
36990;DHT22;22898;52.102;5.776;2023-11-19T05:40:46;13.70;99.90
36990;DHT22;22898;52.102;5.776;2023-11-19T05:43:13;13.90;99.90
36990;DHT22;22898;52.102;5.776;2023-11-19T05:45:40;14.40;99.90
36990;DHT22;22898;52.102;5.776;2023-11-19T05:48:05;14.70;99.90
36990;DHT22;22898;52.102;5.776;2023-11-19T05:50:31;14.30;99.90
36990;DHT22;22898;52.102;5.776;2023-11-19T05:52:57;14.20;99.90
36990;DHT22;22898;52.102;5.776;2023-11-19T05:55:22;14.40;99.90
36990;DHT22;22898;52.102;5.776;2023-11-19T05:57:50;14.40;99.90
36990;DHT22;22898;52.102;5.776;2023-11-19T06:00:17;14.10;99.90
36990;DHT22;22898;52.102;5.776;2023-11-19T06:02:43;13.60;99.90
36990;DHT22;22898;52.102;5.776;2023-11-19T06:05:09;13.60;99.90
36990;DHT22;22898;52.102;5.776;2023-11-19T06:07:35;14.10;99.90
36990;DHT22;22898;52.102;5.776;2023-11-19T06:10:02;14.50;99.90
36990;DHT22;22898;52.102;5.776;2023-11-19T06:12:28;14.70;99.90
36990;DHT22;22898;52.102;5.776;2023-11-19T06:14:54;14.40;99.90
36990;DHT22;22898;52.102;5.776;2023-11-19T06:17:19;14.30;99.90
36990;DHT22;22898;52.102;5.776;2023-11-19T06:19:45;14.20;99.90
36990;DHT22;22898;52.102;5.776;2023-11-19T06:22:10;14.30;99.90
36990;DHT22;22898;52.102;5.776;2023-11-19T06:24:36;14.40;99.90
36990;DHT22;22898;52.102;5.776;2023-11-19T06:27:03;14.20;99.90
36990;DHT22;22898;52.102;5.776;2023-11-19T06:29:29;13.80;99.90
36990;DHT22;22898;52.102;5.776;2023-11-19T06:31:55;14.00;99.90
36990;DHT22;22898;52.102;5.776;2023-11-19T06:34:20;14.00;99.90
36990;DHT22;22898;52.102;5.776;2023-11-19T06:36:46;13.90;99.90
36990;DHT22;22898;52.102;5.776;2023-11-19T06:39:12;14.10;99.90
36990;DHT22;22898;52.102;5.776;2023-11-19T06:41:37;14.20;99.90
36990;DHT22;22898;52.102;5.776;2023-11-19T06:44:04;14.10;99.90
36990;DHT22;22898;52.102;5.776;2023-11-19T06:46:30;14.10;99.90
36990;DHT22;22898;52.102;5.776;2023-11-19T06:48:56;13.90;99.90
36990;DHT22;22898;52.102;5.776;2023-11-19T06:51:22;13.80;99.90
36990;DHT22;22898;52.102;5.776;2023-11-19T06:53:49;14.10;99.90
36990;DHT22;22898;52.102;5.776;2023-11-19T06:56:22;14.00;99.90
36990;DHT22;22898;52.102;5.776;2023-11-19T06:58:48;13.90;99.90
36990;DHT22;22898;52.102;5.776;2023-11-19T07:01:15;13.80;99.90
36990;DHT22;22898;52.102;5.776;2023-11-19T07:03:40;13.90;99.90
36990;DHT22;22898;52.102;5.776;2023-11-19T07:06:06;14.20;99.90
36990;DHT22;22898;52.102;5.776;2023-11-19T07:08:32;14.50;99.90
36990;DHT22;22898;52.102;5.776;2023-11-19T07:10:57;14.90;99.90
36990;DHT22;22898;52.102;5.776;2023-11-19T07:13:23;14.40;99.90
36990;DHT22;22898;52.102;5.776;2023-11-19T07:15:48;14.10;99.90
36990;DHT22;22898;52.102;5.776;2023-11-19T07:18:14;14.00;99.90
36990;DHT22;22898;52.102;5.776;2023-11-19T07:20:40;14.00;99.90
36990;DHT22;22898;52.102;5.776;2023-11-19T07:23:06;14.00;99.90
36990;DHT22;22898;52.102;5.776;2023-11-19T07:25:32;14.50;99.90
36990;DHT22;22898;52.102;5.776;2023-11-19T07:27:57;14.30;99.90
36990;DHT22;22898;52.102;5.776;2023-11-19T07:30:23;14.30;99.90
36990;DHT22;22898;52.102;5.776;2023-11-19T07:32:48;14.60;99.90
36990;DHT22;22898;52.102;5.776;2023-11-19T07:35:14;14.80;99.90
36990;DHT22;22898;52.102;5.776;2023-11-19T07:37:41;15.20;99.90
36990;DHT22;22898;52.102;5.776;2023-11-19T07:40:08;15.10;99.90
36990;DHT22;22898;52.102;5.776;2023-11-19T07:42:33;14.80;99.90
36990;DHT22;22898;52.102;5.776;2023-11-19T07:44:59;14.80;99.90
36990;DHT22;22898;52.102;5.776;2023-11-19T07:47:24;14.50;99.90
36990;DHT22;22898;52.102;5.776;2023-11-19T07:49:50;14.50;99.90
36990;DHT22;22898;52.102;5.776;2023-11-19T07:52:16;14.30;99.90
36990;DHT22;22898;52.102;5.776;2023-11-19T07:54:41;14.20;99.90
36990;DHT22;22898;52.102;5.776;2023-11-19T07:57:07;14.00;99.90
36990;DHT22;22898;52.102;5.776;2023-11-19T07:59:33;14.20;99.90
36990;DHT22;22898;52.102;5.776;2023-11-19T08:01:58;14.50;99.90
36990;DHT22;22898;52.102;5.776;2023-11-19T08:04:24;14.10;99.90
36990;DHT22;22898;52.102;5.776;2023-11-19T08:06:49;14.60;99.90
36990;DHT22;22898;52.102;5.776;2023-11-19T08:09:15;14.80;99.90
36990;DHT22;22898;52.102;5.776;2023-11-19T08:11:41;14.60;99.90
36990;DHT22;22898;52.102;5.776;2023-11-19T08:14:07;14.30;99.90
36990;DHT22;22898;52.102;5.776;2023-11-19T08:16:33;14.50;99.90
36990;DHT22;22898;52.102;5.776;2023-11-19T08:18:59;14.40;99.90
36990;DHT22;22898;52.102;5.776;2023-11-19T08:21:25;14.10;99.90
36990;DHT22;22898;52.102;5.776;2023-11-19T08:23:52;14.30;99.90
36990;DHT22;22898;52.102;5.776;2023-11-19T08:26:17;14.80;99.90
36990;DHT22;22898;52.102;5.776;2023-11-19T08:28:43;14.70;99.90
36990;DHT22;22898;52.102;5.776;2023-11-19T08:31:09;15.00;99.90
36990;DHT22;22898;52.102;5.776;2023-11-19T08:33:34;15.00;99.90
36990;DHT22;22898;52.102;5.776;2023-11-19T08:36:00;15.20;99.90
36990;DHT22;22898;52.102;5.776;2023-11-19T08:38:26;15.70;99.90
36990;DHT22;22898;52.102;5.776;2023-11-19T08:40:52;16.20;99.90
36990;DHT22;22898;52.102;5.776;2023-11-19T08:43:17;16.10;99.90
36990;DHT22;22898;52.102;5.776;2023-11-19T08:45:43;16.20;99.90
36990;DHT22;22898;52.102;5.776;2023-11-19T08:48:09;16.20;99.90
36990;DHT22;22898;52.102;5.776;2023-11-19T08:50:34;16.10;99.90
36990;DHT22;22898;52.102;5.776;2023-11-19T08:53:00;15.60;99.90
36990;DHT22;22898;52.102;5.776;2023-11-19T08:55:26;15.30;99.90
36990;DHT22;22898;52.102;5.776;2023-11-19T08:57:51;14.90;99.90
36990;DHT22;22898;52.102;5.776;2023-11-19T09:00:17;15.40;99.90
36990;DHT22;22898;52.102;5.776;2023-11-19T09:02:43;15.30;99.90
36990;DHT22;22898;52.102;5.776;2023-11-19T09:05:09;15.20;99.90
36990;DHT22;22898;52.102;5.776;2023-11-19T09:07:34;15.40;99.90
36990;DHT22;22898;52.102;5.776;2023-11-19T09:10:00;15.30;99.90
36990;DHT22;22898;52.102;5.776;2023-11-19T09:12:26;15.40;99.90
36990;DHT22;22898;52.102;5.776;2023-11-19T09:14:52;15.40;99.90
36990;DHT22;22898;52.102;5.776;2023-11-19T09:17:18;15.10;99.90
36990;DHT22;22898;52.102;5.776;2023-11-19T09:19:44;15.30;99.90
36990;DHT22;22898;52.102;5.776;2023-11-19T09:22:09;15.60;99.90
36990;DHT22;22898;52.102;5.776;2023-11-19T09:24:35;15.60;99.90
36990;DHT22;22898;52.102;5.776;2023-11-19T09:27:00;15.70;99.90
36990;DHT22;22898;52.102;5.776;2023-11-19T09:29:26;16.10;99.90
36990;DHT22;22898;52.102;5.776;2023-11-19T09:31:51;15.80;99.90
36990;DHT22;22898;52.102;5.776;2023-11-19T09:34:17;15.00;99.90
36990;DHT22;22898;52.102;5.776;2023-11-19T09:36:43;15.10;99.90
36990;DHT22;22898;52.102;5.776;2023-11-19T09:39:13;15.00;99.90
36990;DHT22;22898;52.102;5.776;2023-11-19T09:41:44;15.20;99.90
36990;DHT22;22898;52.102;5.776;2023-11-19T09:44:10;15.20;99.90
36990;DHT22;22898;52.102;5.776;2023-11-19T09:46:41;15.70;99.90
36990;DHT22;22898;52.102;5.776;2023-11-19T09:49:08;15.60;99.90
36990;DHT22;22898;52.102;5.776;2023-11-19T09:51:35;15.40;99.90
36990;DHT22;22898;52.102;5.776;2023-11-19T09:54:01;15.30;99.90
36990;DHT22;22898;52.102;5.776;2023-11-19T09:56:28;15.20;99.90
36990;DHT22;22898;52.102;5.776;2023-11-19T09:58:55;15.30;99.90
36990;DHT22;22898;52.102;5.776;2023-11-19T10:01:20;15.30;99.90
36990;DHT22;22898;52.102;5.776;2023-11-19T10:03:47;15.70;99.90
36990;DHT22;22898;52.102;5.776;2023-11-19T10:06:15;15.30;99.90
36990;DHT22;22898;52.102;5.776;2023-11-19T10:08:41;15.40;99.90
36990;DHT22;22898;52.102;5.776;2023-11-19T10:11:08;15.50;99.90
36990;DHT22;22898;52.102;5.776;2023-11-19T10:13:36;15.50;99.90
36990;DHT22;22898;52.102;5.776;2023-11-19T10:16:09;15.80;99.90
36990;DHT22;22898;52.102;5.776;2023-11-19T10:18:36;15.90;99.90
36990;DHT22;22898;52.102;5.776;2023-11-19T10:21:04;15.70;99.90
36990;DHT22;22898;52.102;5.776;2023-11-19T10:23:31;15.60;99.90
36990;DHT22;22898;52.102;5.776;2023-11-19T10:26:03;15.60;99.90
36990;DHT22;22898;52.102;5.776;2023-11-19T10:28:39;15.60;99.90
36990;DHT22;22898;52.102;5.776;2023-11-19T10:31:05;15.10;99.90
36990;DHT22;22898;52.102;5.776;2023-11-19T10:33:31;15.20;99.90
36990;DHT22;22898;52.102;5.776;2023-11-19T10:35:57;15.70;99.90
36990;DHT22;22898;52.102;5.776;2023-11-19T10:38:24;16.40;99.90
36990;DHT22;22898;52.102;5.776;2023-11-19T10:40:50;16.50;99.90
36990;DHT22;22898;52.102;5.776;2023-11-19T10:43:20;16.70;99.90
36990;DHT22;22898;52.102;5.776;2023-11-19T10:45:47;16.20;99.90
36990;DHT22;22898;52.102;5.776;2023-11-19T10:48:13;15.80;99.90
36990;DHT22;22898;52.102;5.776;2023-11-19T10:50:41;15.80;99.90
36990;DHT22;22898;52.102;5.776;2023-11-19T10:53:09;16.00;99.90
36990;DHT22;22898;52.102;5.776;2023-11-19T10:55:36;16.40;99.90
36990;DHT22;22898;52.102;5.776;2023-11-19T10:58:15;16.10;99.90
36990;DHT22;22898;52.102;5.776;2023-11-19T11:03:17;16.00;99.90
36990;DHT22;22898;52.102;5.776;2023-11-19T11:05:43;15.70;99.90
36990;DHT22;22898;52.102;5.776;2023-11-19T11:08:13;15.90;99.90
36990;DHT22;22898;52.102;5.776;2023-11-19T11:10:54;16.30;99.90
36990;DHT22;22898;52.102;5.776;2023-11-19T11:13:22;16.50;99.90
36990;DHT22;22898;52.102;5.776;2023-11-19T11:15:49;16.70;99.90
36990;DHT22;22898;52.102;5.776;2023-11-19T11:18:14;16.10;99.90
36990;DHT22;22898;52.102;5.776;2023-11-19T11:20:40;15.70;99.90
36990;DHT22;22898;52.102;5.776;2023-11-19T11:29:28;16.00;99.90
36990;DHT22;22898;52.102;5.776;2023-11-19T11:32:21;15.70;99.90
36990;DHT22;22898;52.102;5.776;2023-11-19T11:35:12;15.50;99.90
36990;DHT22;22898;52.102;5.776;2023-11-19T11:37:46;15.60;99.90
36990;DHT22;22898;52.102;5.776;2023-11-19T11:40:17;15.30;99.90
36990;DHT22;22898;52.102;5.776;2023-11-19T11:42:44;16.00;99.90
36990;DHT22;22898;52.102;5.776;2023-11-19T11:45:11;16.60;99.90
36990;DHT22;22898;52.102;5.776;2023-11-19T11:58:00;15.60;99.90
36990;DHT22;22898;52.102;5.776;2023-11-19T12:00:32;15.30;99.90
36990;DHT22;22898;52.102;5.776;2023-11-19T12:03:04;15.30;99.90
36990;DHT22;22898;52.102;5.776;2023-11-19T12:05:30;15.50;99.90
36990;DHT22;22898;52.102;5.776;2023-11-19T12:08:04;15.50;99.90
36990;DHT22;22898;52.102;5.776;2023-11-19T12:10:37;15.70;99.90
36990;DHT22;22898;52.102;5.776;2023-11-19T12:13:05;15.90;99.90
36990;DHT22;22898;52.102;5.776;2023-11-19T12:15:32;15.80;99.90
36990;DHT22;22898;52.102;5.776;2023-11-19T12:17:58;15.70;99.90
36990;DHT22;22898;52.102;5.776;2023-11-19T12:20:25;15.70;99.90
36990;DHT22;22898;52.102;5.776;2023-11-19T12:22:52;15.70;99.90
36990;DHT22;22898;52.102;5.776;2023-11-19T12:25:19;16.60;99.90
36990;DHT22;22898;52.102;5.776;2023-11-19T12:27:50;16.80;99.90
36990;DHT22;22898;52.102;5.776;2023-11-19T12:30:23;16.40;99.90
36990;DHT22;22898;52.102;5.776;2023-11-19T12:32:52;15.70;99.90
36990;DHT22;22898;52.102;5.776;2023-11-19T12:35:21;16.00;99.90
36990;DHT22;22898;52.102;5.776;2023-11-19T12:37:49;16.10;99.90
36990;DHT22;22898;52.102;5.776;2023-11-19T12:42:45;16.10;99.90
36990;DHT22;22898;52.102;5.776;2023-11-19T12:45:11;16.20;99.90
36990;DHT22;22898;52.102;5.776;2023-11-19T12:47:39;15.90;99.90
36990;DHT22;22898;52.102;5.776;2023-11-19T12:50:06;16.50;99.90
36990;DHT22;22898;52.102;5.776;2023-11-19T12:52:32;16.10;99.90
36990;DHT22;22898;52.102;5.776;2023-11-19T12:54:58;16.10;99.90
36990;DHT22;22898;52.102;5.776;2023-11-19T12:57:42;16.10;99.90
36990;DHT22;22898;52.102;5.776;2023-11-19T13:00:19;15.90;99.90
36990;DHT22;22898;52.102;5.776;2023-11-19T13:02:49;15.50;99.90
36990;DHT22;22898;52.102;5.776;2023-11-19T13:05:31;16.20;99.90
36990;DHT22;22898;52.102;5.776;2023-11-19T13:08:09;16.30;99.90
36990;DHT22;22898;52.102;5.776;2023-11-19T13:10:50;16.40;99.90
36990;DHT22;22898;52.102;5.776;2023-11-19T13:13:17;16.60;99.90
36990;DHT22;22898;52.102;5.776;2023-11-19T13:15:43;16.50;99.90
36990;DHT22;22898;52.102;5.776;2023-11-19T13:18:10;16.70;99.90
36990;DHT22;22898;52.102;5.776;2023-11-19T13:20:36;16.30;99.90
36990;DHT22;22898;52.102;5.776;2023-11-19T13:23:06;15.90;99.90
36990;DHT22;22898;52.102;5.776;2023-11-19T13:25:35;15.50;99.90
36990;DHT22;22898;52.102;5.776;2023-11-19T13:28:02;15.60;99.90
36990;DHT22;22898;52.102;5.776;2023-11-19T13:30:28;15.90;99.90
36990;DHT22;22898;52.102;5.776;2023-11-19T13:32:54;15.40;99.90
36990;DHT22;22898;52.102;5.776;2023-11-19T13:35:21;15.40;99.90
36990;DHT22;22898;52.102;5.776;2023-11-19T13:37:47;15.80;99.90
36990;DHT22;22898;52.102;5.776;2023-11-19T13:40:14;16.10;99.90
36990;DHT22;22898;52.102;5.776;2023-11-19T13:42:42;16.20;99.90
36990;DHT22;22898;52.102;5.776;2023-11-19T13:45:12;15.80;99.90
36990;DHT22;22898;52.102;5.776;2023-11-19T13:47:45;15.60;99.90
36990;DHT22;22898;52.102;5.776;2023-11-19T13:50:12;15.10;99.90
36990;DHT22;22898;52.102;5.776;2023-11-19T13:52:39;15.30;99.90
36990;DHT22;22898;52.102;5.776;2023-11-19T13:55:14;15.90;99.90
36990;DHT22;22898;52.102;5.776;2023-11-19T13:57:41;16.10;99.90
36990;DHT22;22898;52.102;5.776;2023-11-19T14:00:09;16.30;99.90
36990;DHT22;22898;52.102;5.776;2023-11-19T14:02:47;16.10;99.90
36990;DHT22;22898;52.102;5.776;2023-11-19T14:05:14;15.00;99.90
36990;DHT22;22898;52.102;5.776;2023-11-19T14:07:44;15.00;99.90
36990;DHT22;22898;52.102;5.776;2023-11-19T14:10:10;15.00;99.90
36990;DHT22;22898;52.102;5.776;2023-11-19T14:12:37;15.60;99.90
36990;DHT22;22898;52.102;5.776;2023-11-19T14:15:04;15.40;99.90
36990;DHT22;22898;52.102;5.776;2023-11-19T14:17:31;15.10;99.90
36990;DHT22;22898;52.102;5.776;2023-11-19T14:19:57;15.20;99.90
36990;DHT22;22898;52.102;5.776;2023-11-19T14:22:23;15.60;99.90
36990;DHT22;22898;52.102;5.776;2023-11-19T14:24:48;15.90;99.90
36990;DHT22;22898;52.102;5.776;2023-11-19T14:27:14;15.40;99.90
36990;DHT22;22898;52.102;5.776;2023-11-19T14:29:39;15.00;99.90
36990;DHT22;22898;52.102;5.776;2023-11-19T14:32:06;14.90;99.90
36990;DHT22;22898;52.102;5.776;2023-11-19T14:34:31;15.00;99.90
36990;DHT22;22898;52.102;5.776;2023-11-19T14:37:00;15.00;99.90
36990;DHT22;22898;52.102;5.776;2023-11-19T14:39:26;15.00;99.90
36990;DHT22;22898;52.102;5.776;2023-11-19T14:41:51;15.30;99.90
36990;DHT22;22898;52.102;5.776;2023-11-19T14:44:18;15.30;99.90
36990;DHT22;22898;52.102;5.776;2023-11-19T14:46:45;15.50;99.90
36990;DHT22;22898;52.102;5.776;2023-11-19T14:49:11;15.00;99.90
36990;DHT22;22898;52.102;5.776;2023-11-19T14:51:37;14.60;99.90
36990;DHT22;22898;52.102;5.776;2023-11-19T14:54:04;14.90;99.90
36990;DHT22;22898;52.102;5.776;2023-11-19T14:56:30;15.30;99.90
36990;DHT22;22898;52.102;5.776;2023-11-19T14:58:55;15.40;99.90
36990;DHT22;22898;52.102;5.776;2023-11-19T15:01:21;15.60;99.90
36990;DHT22;22898;52.102;5.776;2023-11-19T15:03:47;15.70;99.90
36990;DHT22;22898;52.102;5.776;2023-11-19T15:06:12;15.50;99.90
36990;DHT22;22898;52.102;5.776;2023-11-19T15:08:38;15.20;99.90
36990;DHT22;22898;52.102;5.776;2023-11-19T15:11:04;15.60;99.90
36990;DHT22;22898;52.102;5.776;2023-11-19T15:13:31;15.30;99.90
36990;DHT22;22898;52.102;5.776;2023-11-19T15:15:57;15.50;99.90
36990;DHT22;22898;52.102;5.776;2023-11-19T15:18:23;15.50;99.90
36990;DHT22;22898;52.102;5.776;2023-11-19T15:20:49;15.50;99.90
36990;DHT22;22898;52.102;5.776;2023-11-19T15:23:15;15.70;99.90
36990;DHT22;22898;52.102;5.776;2023-11-19T15:25:42;16.00;99.90
36990;DHT22;22898;52.102;5.776;2023-11-19T15:28:07;16.00;99.90
36990;DHT22;22898;52.102;5.776;2023-11-19T15:30:33;16.10;99.90
36990;DHT22;22898;52.102;5.776;2023-11-19T15:32:59;16.10;99.90
36990;DHT22;22898;52.102;5.776;2023-11-19T15:35:24;16.00;99.90
36990;DHT22;22898;52.102;5.776;2023-11-19T15:37:51;15.80;99.90
36990;DHT22;22898;52.102;5.776;2023-11-19T15:40:16;16.00;99.90
36990;DHT22;22898;52.102;5.776;2023-11-19T15:42:42;16.40;99.90
36990;DHT22;22898;52.102;5.776;2023-11-19T15:45:11;16.60;99.90
36990;DHT22;22898;52.102;5.776;2023-11-19T15:47:37;16.70;99.90
36990;DHT22;22898;52.102;5.776;2023-11-19T15:50:04;16.20;99.90
36990;DHT22;22898;52.102;5.776;2023-11-19T15:52:30;15.70;99.90